»·PEaware :: ASA611 KLAS-KSEA

ASA611 :: KLAS-KSEA

FLIGHT INFORMATION

Flight Status: Arrived
Operator:
Alaska Airlines
More flights by this operator :: More flights under this callsign
Pilot: Terry G. (25863)
Aircraft: BOEING 737-900
(B739)
More flights by this aircraft type
Origin: KLAS McCarran Intl
United States
Destination: KSEA Seattle-Tacoma Intl
United States
More flights between these airports :: More routes between these airports
Route: SHEAD1 OAL LOMIA LKV HAWKZ7
File this flight plan on PilotEdge
Remarks:
Altitude:
(Current/Filed)
36,000ft
Speed:
(Current/Filed)
450kts
Departed: 14-Aug-19 04:01 PM
Arrived: 14-Aug-19 06:06 PM
Distance/Time
Traveled:
752nm/2:05
Distance/Time
To Go:
Arrived

Flight Plot

Page will automatically refresh every two minutes.

Flight plan parsing failed; only flown route is shown


Map Options




Map Legend


Flown Route
Filed Route
Departure Airport
Arrival Airport
Navaid (VOR, NDB)
Fix

Horizontal Profiles

Position Reports

Time Latitude Longitude Heading Altitude Ground
Speed
14-Aug-19 15:43 36.085267 -115.140555 0 2188ft 0kts
14-Aug-19 15:44 36.085267 -115.140555 0 2188ft 0kts
14-Aug-19 15:45 36.085267 -115.140555 0 2188ft 0kts
14-Aug-19 15:46 36.085267 -115.140555 0 2188ft 0kts
14-Aug-19 15:47 36.085267 -115.140555 0 2188ft 0kts
14-Aug-19 15:48 36.085267 -115.140555 0 2188ft 0kts
14-Aug-19 15:49 36.085267 -115.140555 0 2188ft 0kts
14-Aug-19 15:51 36.085267 -115.140555 0 2188ft 0kts
14-Aug-19 15:52 36.085158 -115.140556 358 2188ft 2kts
14-Aug-19 15:53 36.084623 -115.140357 275 2188ft 2kts
14-Aug-19 15:54 36.084732 -115.140162 224 2188ft 0kts
14-Aug-19 15:55 36.084732 -115.140162 224 2188ft 0kts
14-Aug-19 15:56 36.081771 -115.142407 172 2188ft 12kts
14-Aug-19 15:57 36.077803 -115.142484 197 2188ft 13kts
14-Aug-19 15:58 36.077846 -115.148332 274 2188ft 18kts
14-Aug-19 15:59 36.078054 -115.155238 267 2188ft 20kts
14-Aug-19 16:00 36.077965 -115.161041 240 2188ft 13kts
14-Aug-19 16:01 36.076385 -115.154444 90 2189ft 88kts
14-Aug-19 16:02 36.076126 -115.101255 88 3144ft 188kts
14-Aug-19 16:03 36.076844 -115.032513 90 4756ft 232kts
14-Aug-19 16:04 36.061505 -114.945176 136 6901ft 289kts
14-Aug-19 16:05 35.985267 -114.911747 165 10273ft 297kts
14-Aug-19 16:06 35.911845 -114.957581 230 12074ft 352kts
14-Aug-19 16:07 35.842436 -115.050656 234 14317ft 378kts
14-Aug-19 16:08 35.829738 -115.180098 274 16644ft 398kts
14-Aug-19 16:08 35.839810 -115.294609 275 18457ft 409kts
14-Aug-19 16:10 35.853815 -115.460631 275 20734ft 425kts
14-Aug-19 16:11 35.866418 -115.607497 275 22436ft 438kts
14-Aug-19 16:11 35.876884 -115.733368 275 23725ft 448kts
14-Aug-19 16:13 35.891514 -115.913732 279 25373ft 457kts
14-Aug-19 16:13 35.943531 -116.025413 314 26504ft 459kts
14-Aug-19 16:14 36.037021 -116.134040 317 27618ft 464kts
14-Aug-19 16:16 36.148084 -116.262291 317 28747ft 471kts
14-Aug-19 16:16 36.228061 -116.354412 317 29678ft 469kts
14-Aug-19 16:17 36.322759 -116.464343 316 30923ft 464kts
14-Aug-19 16:18 36.416381 -116.573788 315 32106ft 458kts
14-Aug-19 16:19 36.508558 -116.681683 315 33137ft 454kts
14-Aug-19 16:20 36.606506 -116.780156 326 33988ft 453kts
14-Aug-19 16:21 36.713942 -116.861883 326 34728ft 451kts
14-Aug-19 16:22 36.820894 -116.943510 326 35380ft 450kts
14-Aug-19 16:23 36.927572 -117.024877 326 35970ft 448kts
14-Aug-19 16:24 37.034068 -117.106379 326 36141ft 449kts
14-Aug-19 16:25 37.140336 -117.188050 326 36154ft 448kts
14-Aug-19 16:26 37.246276 -117.270001 325 36166ft 447kts
14-Aug-19 16:27 37.354414 -117.348042 331 36178ft 449kts
14-Aug-19 16:28 37.465816 -117.419200 330 36221ft 449kts
14-Aug-19 16:29 37.576872 -117.491261 330 36238ft 448kts
14-Aug-19 16:30 37.687701 -117.563296 330 36223ft 448kts
14-Aug-19 16:31 37.798457 -117.635542 330 36219ft 448kts
14-Aug-19 16:32 37.909194 -117.708368 330 36221ft 448kts
14-Aug-19 16:33 38.017152 -117.786139 320 36220ft 445kts
14-Aug-19 16:34 38.111733 -117.886898 317 36221ft 444kts
14-Aug-19 16:35 38.205886 -117.988974 317 36217ft 445kts
14-Aug-19 16:36 38.300164 -118.091091 318 36209ft 445kts
14-Aug-19 16:37 38.394642 -118.193491 317 36256ft 444kts
14-Aug-19 16:38 38.488528 -118.295865 316 36285ft 444kts
14-Aug-19 16:39 38.582041 -118.398815 316 36255ft 444kts
14-Aug-19 16:40 38.675675 -118.501712 316 36227ft 444kts
14-Aug-19 16:41 38.769507 -118.605313 316 36207ft 444kts
14-Aug-19 16:42 38.863223 -118.708473 316 36192ft 444kts
14-Aug-19 16:43 38.956680 -118.812085 316 36203ft 444kts
14-Aug-19 16:44 39.050105 -118.915804 317 36203ft 444kts
14-Aug-19 16:45 39.143236 -119.020161 317 36196ft 444kts
14-Aug-19 16:46 39.242918 -119.113186 334 36187ft 447kts
14-Aug-19 16:47 39.361482 -119.164523 340 36186ft 449kts
14-Aug-19 16:48 39.480681 -119.213094 340 36180ft 449kts
14-Aug-19 16:49 39.599850 -119.261962 339 36173ft 449kts
14-Aug-19 16:50 39.718858 -119.310980 340 36175ft 449kts
14-Aug-19 16:51 39.837640 -119.359892 340 36174ft 448kts
14-Aug-19 16:52 39.955572 -119.408759 340 36174ft 448kts
14-Aug-19 16:53 40.074373 -119.458210 339 36174ft 447kts
14-Aug-19 16:54 40.192681 -119.507655 339 36178ft 447kts
14-Aug-19 16:55 40.311293 -119.557413 339 36179ft 447kts
14-Aug-19 16:56 40.429599 -119.607227 339 36180ft 447kts
14-Aug-19 16:57 40.547368 -119.657000 339 36189ft 447kts
14-Aug-19 16:58 40.666372 -119.707472 339 36192ft 447kts
14-Aug-19 16:59 40.784516 -119.757926 339 36196ft 446kts
14-Aug-19 17:00 40.902685 -119.808500 338 36206ft 445kts
14-Aug-19 17:01 41.020637 -119.858987 339 36211ft 445kts
14-Aug-19 17:02 41.138488 -119.909693 339 36215ft 445kts
14-Aug-19 17:03 41.256142 -119.960517 339 36218ft 444kts
14-Aug-19 17:04 41.373764 -120.011538 339 36223ft 444kts
14-Aug-19 17:05 41.491371 -120.062764 339 36226ft 444kts
14-Aug-19 17:06 41.608692 -120.114057 339 36236ft 444kts
14-Aug-19 17:07 41.726121 -120.165597 339 36240ft 444kts
14-Aug-19 17:08 41.843338 -120.217242 339 36246ft 444kts
14-Aug-19 17:09 41.960880 -120.269219 339 36253ft 444kts
14-Aug-19 17:10 42.078275 -120.321358 339 36258ft 443kts
14-Aug-19 17:11 42.195172 -120.373430 339 36260ft 443kts
14-Aug-19 17:12 42.312115 -120.425674 338 36258ft 443kts
14-Aug-19 17:13 42.428716 -120.478161 338 36256ft 442kts
14-Aug-19 17:14 42.544049 -120.536088 332 36252ft 439kts
14-Aug-19 17:15 42.654772 -120.604501 332 36250ft 437kts
14-Aug-19 17:16 42.765803 -120.672597 332 36247ft 437kts
14-Aug-19 17:17 42.876786 -120.740329 331 36244ft 436kts
14-Aug-19 17:18 42.987424 -120.807939 331 36241ft 435kts
14-Aug-19 17:19 43.097885 -120.875772 331 36238ft 434kts
14-Aug-19 17:20 43.207627 -120.943480 331 36234ft 434kts
14-Aug-19 17:21 43.317933 -121.011836 331 36232ft 433kts
14-Aug-19 17:22 43.427662 -121.080127 330 36229ft 432kts
14-Aug-19 17:23 43.537049 -121.148273 330 36226ft 432kts
14-Aug-19 17:24 43.646711 -121.217081 330 36219ft 432kts
14-Aug-19 17:25 43.755710 -121.285842 330 36219ft 431kts
14-Aug-19 17:26 43.864782 -121.354864 329 36219ft 431kts
14-Aug-19 17:27 43.974030 -121.424382 329 36219ft 430kts
14-Aug-19 17:28 44.082667 -121.493829 329 36219ft 428kts
14-Aug-19 17:29 44.190970 -121.562868 329 36213ft 429kts
14-Aug-19 17:30 44.299375 -121.632408 329 36206ft 429kts
14-Aug-19 17:31 44.407889 -121.702386 329 36193ft 428kts
14-Aug-19 17:32 44.516098 -121.772478 328 36185ft 429kts
14-Aug-19 17:33 44.624322 -121.842883 328 36180ft 428kts
14-Aug-19 17:34 44.732461 -121.913529 328 36173ft 428kts
14-Aug-19 17:35 44.840362 -121.984314 328 36166ft 427kts
14-Aug-19 17:36 44.948459 -122.055522 327 36158ft 430kts
14-Aug-19 17:37 45.056876 -122.127038 327 36157ft 430kts
14-Aug-19 17:38 45.164970 -122.198900 327 36157ft 429kts
14-Aug-19 17:39 45.273175 -122.271216 327 36163ft 429kts
14-Aug-19 17:40 45.381296 -122.343721 326 36170ft 429kts
14-Aug-19 17:41 45.488705 -122.416567 326 36170ft 429kts
14-Aug-19 17:42 45.596647 -122.488804 326 36172ft 428kts
14-Aug-19 17:43 45.704377 -122.561956 326 34252ft 428kts
14-Aug-19 17:44 45.820470 -122.610908 340 31526ft 437kts
14-Aug-19 17:45 45.938401 -122.639160 341 29272ft 421kts
14-Aug-19 17:46 46.051984 -122.666989 343 27094ft 407kts
14-Aug-19 17:47 46.162567 -122.691158 346 24974ft 397kts
14-Aug-19 17:48 46.270591 -122.712350 346 22890ft 386kts
14-Aug-19 17:49 46.376570 -122.726075 353 20849ft 381kts
14-Aug-19 17:50 46.481851 -122.728421 354 18818ft 374kts
14-Aug-19 17:51 46.585980 -122.731904 354 16560ft 372kts
14-Aug-19 17:52 46.686358 -122.735369 355 14546ft 350kts
14-Aug-19 17:53 46.780725 -122.732882 13 12885ft 327kts
14-Aug-19 17:54 46.855345 -122.655983 42 11132ft 336kts
14-Aug-19 17:55 46.919872 -122.563482 42 10241ft 304kts
14-Aug-19 17:56 46.975995 -122.479135 39 9208ft 281kts
14-Aug-19 17:57 47.041091 -122.419402 28 7832ft 273kts
14-Aug-19 17:58 47.104208 -122.365693 28 6535ft 267kts
14-Aug-19 17:59 47.166681 -122.313834 17 5170ft 249kts
14-Aug-19 18:00 47.232270 -122.309625 358 4008ft 227kts
14-Aug-19 18:01 47.292098 -122.309291 358 2949ft 200kts
14-Aug-19 18:02 47.342203 -122.308876 358 2031ft 159kts
14-Aug-19 18:03 47.385246 -122.308460 358 1282ft 152kts
14-Aug-19 18:04 47.427767 -122.308105 359 552ft 158kts
14-Aug-19 18:05 47.452175 -122.307699 48 441ft 19kts
14-Aug-19 18:06 47.448931 -122.306269 184 441ft 17kts
14-Aug-19 18:07 47.446919 -122.302574 114 441ft 12kts
14-Aug-19 18:08 47.445633 -122.303155 268 441ft 3kts
14-Aug-19 18:10 47.445633 -122.303160 268 441ft 0kts

Navigation Log

Ident Type
Flight plan parsing failed, navigation log unavailable